createdAt,value
2018-11-26T00:02:03.436Z,40.73
2018-11-26T00:04:31.558Z,42.67
2018-11-26T00:06:59.631Z,38.10
2018-11-26T00:09:27.713Z,37.03
2018-11-26T00:11:56.097Z,37.23
2018-11-26T00:14:24.237Z,35.00
2018-11-26T00:16:52.353Z,36.47
2018-11-26T00:19:20.463Z,34.57
2018-11-26T00:21:48.552Z,38.97
2018-11-26T00:24:16.631Z,38.83
2018-11-26T00:26:44.749Z,39.20
2018-11-26T00:29:12.858Z,40.70
2018-11-26T00:31:40.982Z,40.20
2018-11-26T00:34:09.072Z,38.53
2018-11-26T00:36:37.188Z,42.30
2018-11-26T00:39:07.829Z,40.07
2018-11-26T00:41:35.921Z,39.17
2018-11-26T00:44:04.038Z,44.63
2018-11-26T00:46:32.140Z,38.67
2018-11-26T00:49:00.227Z,40.00
2018-11-26T00:51:28.333Z,43.00
2018-11-26T00:53:56.425Z,40.90
2018-11-26T00:56:24.535Z,40.87
2018-11-26T00:58:52.619Z,44.40
2018-11-26T01:01:20.704Z,40.10
2018-11-26T01:03:48.816Z,44.20
2018-11-26T01:06:16.941Z,46.77
2018-11-26T01:08:45.042Z,43.00
2018-11-26T01:11:13.120Z,44.30
2018-11-26T01:13:41.204Z,43.67
2018-11-26T01:16:15.146Z,42.47
2018-11-26T01:18:43.248Z,43.47
2018-11-26T01:21:11.340Z,40.80
2018-11-26T01:23:39.424Z,45.07
2018-11-26T01:26:07.586Z,42.70
2018-11-26T01:28:35.697Z,42.53
2018-11-26T01:31:03.813Z,41.20
2018-11-26T01:33:31.919Z,43.07
2018-11-26T01:36:00.023Z,41.00
2018-11-26T01:38:28.146Z,41.43
2018-11-26T01:40:56.244Z,45.60
2018-11-26T01:43:24.384Z,42.57
2018-11-26T01:45:52.492Z,42.27
2018-11-26T01:48:20.601Z,45.23
2018-11-26T01:50:48.725Z,41.97
2018-11-26T01:53:16.866Z,45.43
2018-11-26T01:55:44.998Z,42.37
2018-11-26T01:58:13.145Z,45.40
2018-11-26T02:00:41.272Z,43.20
2018-11-26T02:03:09.449Z,43.70
2018-11-26T02:05:37.575Z,41.37
2018-11-26T02:08:06.480Z,40.90
2018-11-26T02:10:34.635Z,39.80
2018-11-26T02:13:02.766Z,40.70
2018-11-26T02:15:36.489Z,38.73
2018-11-26T02:18:04.654Z,40.00
2018-11-26T02:20:32.763Z,40.70
2018-11-26T02:23:00.907Z,42.43
2018-11-26T02:25:29.041Z,40.47
2018-11-26T02:27:57.159Z,41.03
2018-11-26T02:30:25.281Z,44.33
2018-11-26T02:32:53.426Z,44.60
2018-11-26T02:35:21.552Z,42.40
2018-11-26T02:37:51.786Z,41.23
2018-11-26T02:40:27.089Z,42.63
2018-11-26T02:42:55.208Z,41.47
2018-11-26T02:45:23.337Z,41.67
2018-11-26T02:47:51.467Z,40.63
2018-11-26T02:50:19.584Z,42.43
2018-11-26T02:52:47.721Z,42.40
2018-11-26T02:55:15.865Z,41.10
2018-11-26T02:57:43.984Z,42.57
2018-11-26T03:00:12.699Z,43.97
2018-11-26T03:02:40.835Z,41.53
2018-11-26T03:05:11.292Z,44.10
2018-11-26T03:07:39.417Z,43.30
2018-11-26T03:10:08.874Z,40.70
2018-11-26T03:12:37.660Z,46.20
2018-11-26T03:15:11.163Z,40.90
2018-11-26T03:17:39.610Z,44.53
2018-11-26T03:20:08.962Z,47.20
2018-11-26T03:22:37.076Z,47.30
2018-11-26T03:25:07.438Z,46.23
2018-11-26T03:27:35.560Z,45.50
2018-11-26T03:30:04.309Z,45.90
2018-11-26T03:32:32.446Z,43.60
2018-11-26T03:35:00.559Z,43.40
2018-11-26T03:37:28.693Z,44.67
2018-11-26T03:39:56.809Z,45.10
2018-11-26T03:42:24.944Z,43.73
2018-11-26T03:44:53.081Z,46.13
2018-11-26T03:47:21.209Z,48.20
2018-11-26T03:49:49.347Z,44.90
2018-11-26T03:52:17.476Z,48.10
2018-11-26T03:54:45.609Z,46.53
2018-11-26T03:57:13.725Z,46.07
2018-11-26T03:59:41.860Z,49.90
2018-11-26T04:02:09.980Z,48.03
2018-11-26T04:04:38.111Z,42.77
2018-11-26T04:07:06.716Z,49.97
2018-11-26T04:09:34.840Z,49.20
2018-11-26T04:12:02.972Z,44.40
2018-11-26T04:14:31.105Z,48.37
2018-11-26T04:17:02.436Z,48.67
2018-11-26T04:19:30.569Z,43.83
2018-11-26T04:21:58.691Z,46.17
2018-11-26T04:24:26.845Z,46.10
2018-11-26T04:26:54.992Z,43.03
2018-11-26T04:29:23.177Z,42.53
2018-11-26T04:31:51.311Z,47.80
2018-11-26T04:34:19.425Z,44.70
2018-11-26T04:36:47.580Z,46.83
2018-11-26T04:39:15.700Z,46.53
2018-11-26T04:41:43.824Z,44.93
2018-11-26T04:44:11.956Z,43.90
2018-11-26T04:46:40.097Z,43.40
2018-11-26T04:49:08.232Z,44.77
2018-11-26T04:51:36.353Z,41.40
2018-11-26T04:54:04.473Z,43.60
2018-11-26T04:56:32.593Z,41.33
2018-11-26T04:59:00.704Z,42.67
2018-11-26T05:01:28.880Z,43.00
2018-11-26T05:03:57.018Z,43.50
2018-11-26T05:06:25.158Z,42.67
2018-11-26T05:08:53.476Z,40.40
2018-11-26T05:11:21.596Z,42.90
2018-11-26T05:13:49.701Z,40.60
2018-11-26T05:16:17.840Z,42.10
2018-11-26T05:18:45.957Z,45.37
2018-11-26T05:21:14.095Z,40.90
2018-11-26T05:23:42.214Z,42.47
2018-11-26T05:26:10.332Z,41.50
2018-11-26T05:28:38.460Z,40.03
2018-11-26T05:31:08.044Z,42.40
2018-11-26T05:33:34.887Z,41.40
2018-11-26T05:36:03.017Z,39.40
2018-11-26T05:38:31.145Z,37.20
2018-11-26T05:40:59.276Z,40.90
2018-11-26T05:43:28.304Z,38.47
2018-11-26T05:45:56.434Z,37.20
2018-11-26T05:48:24.605Z,38.57
2018-11-26T05:50:52.740Z,36.80
2018-11-26T05:53:20.863Z,38.53
2018-11-26T05:55:49.022Z,37.30
2018-11-26T05:58:17.133Z,37.07
2018-11-26T06:00:45.436Z,37.97
2018-11-26T06:03:13.561Z,37.60
2018-11-26T06:05:41.692Z,38.83
2018-11-26T06:08:09.829Z,36.07
2018-11-26T06:10:37.954Z,37.27
2018-11-26T06:13:06.373Z,35.20
2018-11-26T06:15:34.692Z,41.40
2018-11-26T06:18:02.875Z,38.33
2018-11-26T06:20:30.990Z,35.87
2018-11-26T06:22:59.146Z,36.03
2018-11-26T06:25:27.287Z,37.47
2018-11-26T06:27:55.409Z,36.47
2018-11-26T06:30:23.533Z,37.30
2018-11-26T06:32:51.668Z,36.80
2018-11-26T06:35:21.921Z,34.90
2018-11-26T06:37:50.097Z,38.47
2018-11-26T06:40:18.221Z,38.40
2018-11-26T06:42:46.439Z,37.23
2018-11-26T06:45:20.722Z,36.47
2018-11-26T06:47:48.848Z,35.77
2018-11-26T06:50:18.150Z,38.57
2018-11-26T06:52:46.303Z,35.33
2018-11-26T06:55:16.539Z,34.77
2018-11-26T06:57:44.701Z,34.80
2018-11-26T07:00:14.748Z,37.50
2018-11-26T07:02:42.927Z,35.23
2018-11-26T07:05:15.369Z,36.80
2018-11-26T07:07:43.682Z,35.40
2018-11-26T07:10:12.541Z,39.10
2018-11-26T07:12:40.776Z,34.10
2018-11-26T07:15:11.560Z,35.47
2018-11-26T07:17:39.689Z,39.20
2018-11-26T07:20:09.550Z,36.80
2018-11-26T07:22:37.700Z,37.40
2018-11-26T07:25:08.969Z,37.03
2018-11-26T07:27:37.137Z,38.60
2018-11-26T07:30:08.905Z,36.50
2018-11-26T07:32:37.029Z,39.30
2018-11-26T07:35:06.371Z,39.37
2018-11-26T07:37:34.498Z,39.23
2018-11-26T07:40:02.642Z,35.97
2018-11-26T07:42:30.770Z,38.63
2018-11-26T07:44:58.880Z,40.40
2018-11-26T07:47:27.010Z,36.77
2018-11-26T07:49:55.124Z,37.20
2018-11-26T07:52:23.338Z,35.70
2018-11-26T07:54:51.484Z,39.57
2018-11-26T07:57:19.617Z,38.77
2018-11-26T07:59:47.734Z,39.93
2018-11-26T08:02:15.871Z,38.30
2018-11-26T08:04:44.005Z,36.27
2018-11-26T08:07:12.133Z,36.33
2018-11-26T08:09:40.260Z,36.67
2018-11-26T08:12:08.392Z,37.97
2018-11-26T08:14:36.526Z,40.37
2018-11-26T08:17:04.871Z,40.90
2018-11-26T08:19:32.981Z,40.10
2018-11-26T08:22:01.162Z,41.70
2018-11-26T08:24:29.289Z,41.97
2018-11-26T08:26:57.410Z,38.33
2018-11-26T08:29:25.647Z,38.07
2018-11-26T08:31:53.756Z,37.83
2018-11-26T08:34:21.886Z,38.87
2018-11-26T08:36:54.271Z,40.33
2018-11-26T08:39:26.693Z,40.43
2018-11-26T08:41:54.833Z,38.30
2018-11-26T08:44:28.192Z,41.23
2018-11-26T08:46:56.361Z,37.10
2018-11-26T08:49:27.058Z,38.60
2018-11-26T08:51:55.174Z,37.67
2018-11-26T08:54:23.300Z,37.50
2018-11-26T08:56:51.451Z,37.43
2018-11-26T08:59:19.572Z,39.53
2018-11-26T09:01:50.984Z,35.43
2018-11-26T09:04:20.493Z,33.37
2018-11-26T09:06:48.928Z,35.53
2018-11-26T09:09:17.064Z,35.37
2018-11-26T09:11:45.180Z,34.90
2018-11-26T09:14:13.376Z,35.20
2018-11-26T09:16:41.488Z,37.83
2018-11-26T09:19:09.614Z,36.17
2018-11-26T09:21:37.742Z,34.83
2018-11-26T09:24:05.864Z,32.73
2018-11-26T09:26:33.985Z,35.60
2018-11-26T09:29:02.133Z,36.00
2018-11-26T09:31:30.258Z,34.60
2018-11-26T09:33:58.380Z,38.53
2018-11-26T09:36:26.505Z,34.00
2018-11-26T09:38:54.613Z,34.10
2018-11-26T09:41:22.730Z,37.63
2018-11-26T09:43:50.860Z,35.30
2018-11-26T09:46:18.991Z,36.10
2018-11-26T09:48:47.111Z,32.83
2018-11-26T09:51:15.243Z,32.63
2018-11-26T09:53:43.368Z,31.53
2018-11-26T09:56:11.484Z,34.67
2018-11-26T09:58:39.601Z,32.27
2018-11-26T10:01:07.756Z,37.43
2018-11-26T10:03:35.875Z,33.40
2018-11-26T10:06:04.197Z,33.87
2018-11-26T10:08:32.382Z,33.33
2018-11-26T10:11:00.519Z,31.93
2018-11-26T10:13:28.628Z,33.40
2018-11-26T10:15:56.756Z,33.10
2018-11-26T10:18:24.881Z,33.07
2018-11-26T10:20:53.033Z,35.40
2018-11-26T10:23:21.142Z,34.93
2018-11-26T10:25:49.277Z,33.07
2018-11-26T10:28:17.386Z,37.40
2018-11-26T10:30:45.540Z,33.63
2018-11-26T10:33:14.808Z,35.77
2018-11-26T10:35:41.785Z,34.67
2018-11-26T10:38:09.900Z,34.70
2018-11-26T10:40:38.050Z,35.30
2018-11-26T10:43:11.515Z,35.00
2018-11-26T10:45:34.788Z,37.80
2018-11-26T10:48:02.947Z,33.20
2018-11-26T10:50:31.153Z,33.80
2018-11-26T10:52:59.563Z,33.73
2018-11-26T10:55:30.054Z,34.10
2018-11-26T10:57:58.171Z,32.87
2018-11-26T11:00:31.784Z,30.50
2018-11-26T11:02:59.918Z,32.30
2018-11-26T11:05:28.081Z,34.20
2018-11-26T11:07:56.216Z,35.90
2018-11-26T11:10:25.572Z,34.50
2018-11-26T11:12:53.686Z,32.97
2018-11-26T11:15:21.816Z,30.60
2018-11-26T11:17:49.956Z,32.40
2018-11-26T11:20:20.924Z,30.27
2018-11-26T11:22:49.108Z,30.40
2018-11-26T11:25:17.932Z,34.83
2018-11-26T11:27:46.181Z,34.03
2018-11-26T11:30:22.179Z,34.03
2018-11-26T11:32:50.321Z,33.57
2018-11-26T11:35:18.718Z,33.17
2018-11-26T11:37:47.608Z,33.90
2018-11-26T11:40:23.521Z,36.70
2018-11-26T11:42:51.679Z,33.70
2018-11-26T11:45:20.163Z,36.70
2018-11-26T11:47:48.294Z,33.63
2018-11-26T11:50:18.514Z,34.10
2018-11-26T11:52:46.909Z,32.10
2018-11-26T11:55:16.149Z,33.70
2018-11-26T11:57:44.320Z,33.70
2018-11-26T12:00:30.006Z,32.33
2018-11-26T12:02:58.390Z,33.57
2018-11-26T12:05:26.631Z,32.37
2018-11-26T12:07:54.703Z,35.40
2018-11-26T12:10:22.843Z,33.80
2018-11-26T12:12:50.979Z,30.80
2018-11-26T12:15:19.095Z,32.63
2018-11-26T12:17:47.955Z,32.70
2018-11-26T12:20:16.124Z,30.60
2018-11-26T12:22:44.662Z,28.63
2018-11-26T12:25:14.011Z,30.20
2018-11-26T12:27:42.181Z,29.90
2018-11-26T12:30:16.407Z,29.70
2018-11-26T12:32:44.563Z,30.90
2018-11-26T12:35:12.782Z,27.70
2018-11-26T12:37:40.922Z,30.27
2018-11-26T12:40:12.128Z,30.00
2018-11-26T12:42:40.280Z,28.90
2018-11-26T12:45:14.675Z,29.67
2018-11-26T12:47:42.887Z,30.17
2018-11-26T12:50:11.029Z,30.07
2018-11-26T12:52:39.179Z,28.03
2018-11-26T12:55:11.170Z,29.63
2018-11-26T12:57:40.042Z,28.93
2018-11-26T13:00:11.117Z,28.00
2018-11-26T13:02:39.247Z,30.03
2018-11-26T13:05:10.316Z,30.60
2018-11-26T13:07:38.425Z,32.83
2018-11-26T13:10:11.725Z,32.43
2018-11-26T13:12:39.845Z,31.57
2018-11-26T13:15:13.385Z,34.13
2018-11-26T13:17:41.631Z,31.73
2018-11-26T13:20:13.137Z,30.77
2018-11-26T13:22:41.288Z,32.20
2018-11-26T13:25:11.361Z,30.03
2018-11-26T13:27:40.745Z,32.13
2018-11-26T13:30:13.324Z,33.37
2018-11-26T13:32:41.506Z,33.90
2018-11-26T13:35:11.320Z,33.03
2018-11-26T13:37:39.439Z,33.10
2018-11-26T13:40:11.276Z,33.73
2018-11-26T13:42:39.493Z,32.63
2018-11-26T13:45:09.766Z,33.20
2018-11-26T13:47:38.127Z,32.87
2018-11-26T13:50:08.873Z,35.00
2018-11-26T13:52:36.982Z,32.77
2018-11-26T13:55:07.073Z,33.70
2018-11-26T13:57:35.180Z,32.27
2018-11-26T14:00:03.609Z,32.93
2018-11-26T14:02:31.696Z,34.77
2018-11-26T14:04:59.954Z,31.07
2018-11-26T14:07:28.053Z,32.53
2018-11-26T14:09:56.164Z,32.80
2018-11-26T14:12:24.292Z,34.97
2018-11-26T14:14:52.414Z,31.20
2018-11-26T14:17:20.525Z,31.10
2018-11-26T14:19:48.635Z,35.07
2018-11-26T14:22:16.748Z,32.50
2018-11-26T14:24:44.853Z,33.07
2018-11-26T14:27:12.981Z,33.70
2018-11-26T14:29:41.089Z,34.13
2018-11-26T14:32:09.223Z,33.93
2018-11-26T14:34:37.354Z,34.83
2018-11-26T14:37:05.720Z,35.67
2018-11-26T14:39:33.849Z,33.57
2018-11-26T14:42:02.009Z,34.27
2018-11-26T14:44:30.143Z,31.67
2018-11-26T14:46:58.276Z,34.53
2018-11-26T14:49:26.390Z,32.47
2018-11-26T14:51:54.511Z,30.97
2018-11-26T14:54:22.624Z,31.30
2018-11-26T14:56:50.751Z,30.57
2018-11-26T14:59:18.864Z,32.57
2018-11-26T15:01:46.990Z,29.83
2018-11-26T15:04:15.118Z,28.97
2018-11-26T15:06:43.247Z,29.90
2018-11-26T15:09:11.378Z,31.83
2018-11-26T15:11:39.493Z,33.23
2018-11-26T15:14:07.611Z,30.80
2018-11-26T15:16:35.720Z,32.40
2018-11-26T15:19:03.836Z,33.03
2018-11-26T15:21:31.979Z,32.20
2018-11-26T15:24:00.097Z,31.07
2018-11-26T15:26:28.231Z,32.20
2018-11-26T15:28:56.349Z,30.90
2018-11-26T15:31:24.514Z,30.17
2018-11-26T15:33:52.655Z,33.77
2018-11-26T15:36:21.846Z,31.90
2018-11-26T15:38:49.986Z,35.90
2018-11-26T15:41:18.106Z,35.77
2018-11-26T15:43:46.240Z,36.30
2018-11-26T15:46:14.378Z,38.10
2018-11-26T15:48:42.526Z,32.77
2018-11-26T15:51:10.672Z,34.13
2018-11-26T15:53:38.792Z,33.77
2018-11-26T15:56:06.928Z,34.83
2018-11-26T15:58:35.081Z,38.90
2018-11-26T16:01:03.225Z,34.93
2018-11-26T16:03:31.349Z,34.50
2018-11-26T16:05:59.475Z,31.90
2018-11-26T16:08:27.607Z,32.23
2018-11-26T16:10:55.720Z,30.10
2018-11-26T16:13:23.860Z,37.60
2018-11-26T16:15:52.010Z,34.00
2018-11-26T16:18:21.351Z,31.87
2018-11-26T16:20:50.466Z,31.70
2018-11-26T16:23:18.594Z,31.47
2018-11-26T16:25:47.691Z,33.50
2018-11-26T16:28:19.837Z,34.20
2018-11-26T16:30:48.905Z,31.60
2018-11-26T16:33:17.168Z,33.70
2018-11-26T16:35:45.276Z,33.43
2018-11-26T16:38:13.664Z,33.13
2018-11-26T16:40:41.772Z,32.60
2018-11-26T16:43:10.091Z,35.00
2018-11-26T16:45:38.209Z,36.67
2018-11-26T16:48:06.658Z,34.70
2018-11-26T16:50:35.994Z,33.07
2018-11-26T16:53:04.190Z,35.37
2018-11-26T16:55:32.335Z,32.37
2018-11-26T16:58:00.442Z,32.43
2018-11-26T17:00:30.823Z,34.27
2018-11-26T17:03:00.861Z,33.23
2018-11-26T17:05:38.205Z,31.17
2018-11-26T17:08:07.857Z,32.57
2018-11-26T17:10:35.992Z,34.17
2018-11-26T17:13:04.151Z,32.27
2018-11-26T17:15:32.304Z,33.27
2018-11-26T17:18:00.461Z,33.73
2018-11-26T17:20:28.709Z,34.40
2018-11-26T17:22:56.845Z,35.80
2018-11-26T17:25:25.005Z,35.67
2018-11-26T17:27:53.170Z,37.50
2018-11-26T17:30:23.339Z,36.80
2018-11-26T17:32:53.754Z,34.97
2018-11-26T17:35:21.906Z,34.63
2018-11-26T17:37:50.070Z,36.20
2018-11-26T17:40:20.204Z,34.40
2018-11-26T17:42:48.353Z,37.23
2018-11-26T17:45:16.999Z,36.40
2018-11-26T17:47:49.231Z,37.37
2018-11-26T17:50:20.374Z,35.20
2018-11-26T17:52:48.529Z,32.30
2018-11-26T17:55:16.669Z,38.23
2018-11-26T17:57:44.802Z,35.57
2018-11-26T18:00:16.775Z,33.53
2018-11-26T18:02:45.632Z,29.90
2018-11-26T18:05:16.301Z,34.57
2018-11-26T18:07:45.258Z,32.20
2018-11-26T18:10:14.782Z,32.40
2018-11-26T18:12:42.994Z,33.13
2018-11-26T18:15:13.285Z,31.13
2018-11-26T18:17:43.066Z,29.87
2018-11-26T18:20:12.582Z,32.83
2018-11-26T18:22:40.693Z,30.30
2018-11-26T18:25:10.085Z,32.93
2018-11-26T18:27:39.360Z,28.90
2018-11-26T18:30:12.883Z,29.73
2018-11-26T18:32:41.018Z,30.10
2018-11-26T18:35:09.158Z,28.80
2018-11-26T18:37:37.289Z,26.50
2018-11-26T18:40:09.051Z,28.60
2018-11-26T18:42:37.171Z,27.73
2018-11-26T18:45:07.037Z,33.87
2018-11-26T18:47:35.176Z,40.40
2018-11-26T18:50:04.125Z,29.60
2018-11-26T18:52:32.268Z,30.57
2018-11-26T18:55:00.610Z,26.77
2018-11-26T18:57:28.786Z,27.13
2018-11-26T19:00:03.437Z,32.43
2018-11-26T19:02:31.590Z,32.80
2018-11-26T19:04:59.683Z,30.37
2018-11-26T19:07:27.833Z,29.27
2018-11-26T19:09:55.945Z,28.83
2018-11-26T19:12:24.100Z,25.60
2018-11-26T19:14:52.217Z,27.37
2018-11-26T19:17:20.673Z,26.70
2018-11-26T19:19:48.778Z,24.13
2018-11-26T19:22:16.884Z,26.93
2018-11-26T19:24:44.995Z,28.93
2018-11-26T19:27:13.117Z,24.90
2018-11-26T19:29:41.254Z,31.67
2018-11-26T19:32:09.387Z,31.43
2018-11-26T19:34:37.514Z,29.13
2018-11-26T19:37:05.715Z,26.37
2018-11-26T19:39:33.849Z,26.20
2018-11-26T19:42:02.046Z,25.30
2018-11-26T19:44:30.214Z,29.57
2018-11-26T19:46:58.336Z,30.57
2018-11-26T19:49:26.468Z,26.20
2018-11-26T19:51:54.615Z,25.60
2018-11-26T19:54:23.475Z,24.13
2018-11-26T19:56:51.592Z,25.60
2018-11-26T19:59:19.733Z,25.10
2018-11-26T20:01:47.860Z,26.00
2018-11-26T20:04:27.788Z,23.50
2018-11-26T20:06:55.916Z,23.57
2018-11-26T20:09:24.031Z,21.73
2018-11-26T20:11:52.192Z,23.27
2018-11-26T20:14:25.633Z,22.13
2018-11-26T20:16:48.455Z,23.57
2018-11-26T20:19:16.588Z,23.97
2018-11-26T20:21:44.720Z,24.17
2018-11-26T20:24:12.863Z,23.03
2018-11-26T20:26:41.003Z,23.50
2018-11-26T20:29:09.120Z,25.10
2018-11-26T20:31:37.262Z,22.97
2018-11-26T20:34:05.548Z,23.33
2018-11-26T20:36:33.664Z,23.60
2018-11-26T20:39:01.801Z,23.77
2018-11-26T20:41:29.913Z,23.50
2018-11-26T20:43:58.042Z,24.70
2018-11-26T20:46:26.140Z,22.77
2018-11-26T20:48:54.258Z,23.17
2018-11-26T20:51:22.415Z,23.27
2018-11-26T20:53:50.540Z,21.87
2018-11-26T20:56:18.672Z,21.90
2018-11-26T20:58:47.323Z,24.27
2018-11-26T21:01:15.453Z,22.60
2018-11-26T21:03:43.571Z,24.33
2018-11-26T21:06:11.851Z,23.07
2018-11-26T21:08:39.835Z,24.37
2018-11-26T21:11:07.937Z,23.37
2018-11-26T21:13:36.060Z,24.13
2018-11-26T21:16:04.158Z,24.50
2018-11-26T21:18:32.267Z,25.80
2018-11-26T21:21:00.372Z,23.40
2018-11-26T21:23:30.097Z,22.40
2018-11-26T21:25:59.788Z,23.93
2018-11-26T21:28:27.903Z,25.03
2018-11-26T21:30:56.075Z,23.73
2018-11-26T21:33:24.216Z,22.50
2018-11-26T21:35:52.350Z,26.10
2018-11-26T21:38:20.523Z,22.70
2018-11-26T21:40:48.674Z,25.27
2018-11-26T21:43:16.820Z,24.60
2018-11-26T21:45:53.641Z,24.23
2018-11-26T21:48:21.819Z,26.23
2018-11-26T21:50:49.934Z,24.40
2018-11-26T21:53:18.070Z,24.07
2018-11-26T21:55:46.203Z,26.60
2018-11-26T21:58:14.321Z,22.67
2018-11-26T22:00:42.843Z,22.93
2018-11-26T22:03:12.093Z,28.50
2018-11-26T22:05:41.568Z,27.90
2018-11-26T22:08:10.738Z,27.27
2018-11-26T22:10:40.965Z,30.27
2018-11-26T22:13:10.761Z,30.40
2018-11-26T22:15:38.885Z,32.03
2018-11-26T22:18:07.539Z,30.30
2018-11-26T22:20:35.723Z,32.03
2018-11-26T22:23:03.917Z,32.40
2018-11-26T22:25:32.076Z,30.00
2018-11-26T22:28:00.199Z,30.00
2018-11-26T22:30:29.900Z,32.03
2018-11-26T22:32:58.013Z,31.37
2018-11-26T22:35:26.165Z,30.67
2018-11-26T22:37:54.260Z,34.30
2018-11-26T22:40:23.514Z,31.60
2018-11-26T22:42:51.693Z,30.70
2018-11-26T22:45:24.481Z,30.63
2018-11-26T22:47:56.913Z,30.67
2018-11-26T22:50:25.042Z,32.03
2018-11-26T22:52:53.143Z,27.80
2018-11-26T22:55:21.304Z,30.10
2018-11-26T22:57:49.397Z,30.07
2018-11-26T23:00:27.568Z,32.00
2018-11-26T23:02:58.849Z,30.30
2018-11-26T23:05:27.250Z,30.80
2018-11-26T23:07:55.373Z,30.77
2018-11-26T23:10:23.496Z,30.80
2018-11-26T23:12:51.629Z,29.40
2018-11-26T23:15:19.912Z,30.40
2018-11-26T23:17:48.449Z,30.37
2018-11-26T23:20:17.567Z,30.43
2018-11-26T23:22:45.673Z,29.70
2018-11-26T23:25:16.886Z,30.40
2018-11-26T23:27:45.025Z,30.67
2018-11-26T23:30:19.336Z,28.40
2018-11-26T23:32:48.620Z,29.47
2018-11-26T23:35:16.926Z,28.57
2018-11-26T23:37:45.046Z,30.30
2018-11-26T23:40:13.600Z,30.17
2018-11-26T23:42:41.688Z,30.60
2018-11-26T23:45:12.975Z,29.77
2018-11-26T23:47:41.069Z,27.70
2018-11-26T23:50:10.258Z,27.20
2018-11-26T23:52:39.026Z,29.70
2018-11-26T23:55:08.533Z,29.60
2018-11-26T23:57:36.650Z,28.63
